sensor_id;sensor_type;location;lat;lon;timestamp;temperature;humidity
54680;DHT22;40578;53.178;5.846;2023-02-25T00:01:12;4.30;99.90
54680;DHT22;40578;53.178;5.846;2023-02-25T00:03:38;4.30;99.90
54680;DHT22;40578;53.178;5.846;2023-02-25T00:06:05;4.20;99.90
54680;DHT22;40578;53.178;5.846;2023-02-25T00:08:31;4.20;99.90
54680;DHT22;40578;53.178;5.846;2023-02-25T00:11:02;4.10;99.90
54680;DHT22;40578;53.178;5.846;2023-02-25T00:13:28;4.10;99.90
54680;DHT22;40578;53.178;5.846;2023-02-25T00:15:54;4.20;99.90
54680;DHT22;40578;53.178;5.846;2023-02-25T00:18:23;4.20;99.90
54680;DHT22;40578;53.178;5.846;2023-02-25T00:20:49;4.30;99.90
54680;DHT22;40578;53.178;5.846;2023-02-25T00:23:15;4.30;99.90
54680;DHT22;40578;53.178;5.846;2023-02-25T00:25:41;4.40;99.90
54680;DHT22;40578;53.178;5.846;2023-02-25T00:28:06;4.40;99.90
54680;DHT22;40578;53.178;5.846;2023-02-25T00:30:33;4.50;99.90
54680;DHT22;40578;53.178;5.846;2023-02-25T00:33:00;4.50;99.90
54680;DHT22;40578;53.178;5.846;2023-02-25T00:35:25;4.50;99.90
54680;DHT22;40578;53.178;5.846;2023-02-25T00:37:51;4.50;99.90
54680;DHT22;40578;53.178;5.846;2023-02-25T00:40:17;4.40;99.90
54680;DHT22;40578;53.178;5.846;2023-02-25T00:42:43;4.40;99.90
54680;DHT22;40578;53.178;5.846;2023-02-25T00:45:10;4.30;99.90
54680;DHT22;40578;53.178;5.846;2023-02-25T00:47:35;4.30;99.90
54680;DHT22;40578;53.178;5.846;2023-02-25T00:50:02;4.20;99.90
54680;DHT22;40578;53.178;5.846;2023-02-25T00:52:28;4.20;99.90
54680;DHT22;40578;53.178;5.846;2023-02-25T00:54:54;4.10;99.90
54680;DHT22;40578;53.178;5.846;2023-02-25T00:57:19;4.10;99.90
54680;DHT22;40578;53.178;5.846;2023-02-25T00:59:45;4.10;99.90
54680;DHT22;40578;53.178;5.846;2023-02-25T01:02:11;4.10;99.90
54680;DHT22;40578;53.178;5.846;2023-02-25T01:04:36;4.20;99.90
54680;DHT22;40578;53.178;5.846;2023-02-25T01:07:02;4.70;99.90
54680;DHT22;40578;53.178;5.846;2023-02-25T01:09:28;4.30;99.90
54680;DHT22;40578;53.178;5.846;2023-02-25T01:11:53;4.30;99.90
54680;DHT22;40578;53.178;5.846;2023-02-25T01:14:22;4.40;99.90
54680;DHT22;40578;53.178;5.846;2023-02-25T01:16:50;4.40;99.90
54680;DHT22;40578;53.178;5.846;2023-02-25T01:19:18;4.50;99.90
54680;DHT22;40578;53.178;5.846;2023-02-25T01:21:46;4.50;99.90
54680;DHT22;40578;53.178;5.846;2023-02-25T01:24:16;4.50;99.90
54680;DHT22;40578;53.178;5.846;2023-02-25T01:26:44;4.40;99.90
54680;DHT22;40578;53.178;5.846;2023-02-25T01:29:44;4.40;99.90
54680;DHT22;40578;53.178;5.846;2023-02-25T01:32:11;4.40;99.90
54680;DHT22;40578;53.178;5.846;2023-02-25T01:34:38;4.40;99.90
54680;DHT22;40578;53.178;5.846;2023-02-25T01:37:05;4.30;99.90
54680;DHT22;40578;53.178;5.846;2023-02-25T01:39:31;5.70;99.90
54680;DHT22;40578;53.178;5.846;2023-02-25T01:41:58;4.30;99.90
54680;DHT22;40578;53.178;5.846;2023-02-25T01:44:37;4.30;99.90
54680;DHT22;40578;53.178;5.846;2023-02-25T01:47:03;4.20;99.90
54680;DHT22;40578;53.178;5.846;2023-02-25T01:49:44;4.30;99.90
54680;DHT22;40578;53.178;5.846;2023-02-25T01:52:14;4.20;99.90
54680;DHT22;40578;53.178;5.846;2023-02-25T01:54:41;4.30;99.90
54680;DHT22;40578;53.178;5.846;2023-02-25T01:57:11;4.70;99.90
54680;DHT22;40578;53.178;5.846;2023-02-25T01:59:39;4.30;99.90
54680;DHT22;40578;53.178;5.846;2023-02-25T02:02:07;4.30;99.90
54680;DHT22;40578;53.178;5.846;2023-02-25T02:04:35;4.20;99.90
54680;DHT22;40578;53.178;5.846;2023-02-25T02:07:02;4.20;99.90
54680;DHT22;40578;53.178;5.846;2023-02-25T02:09:30;4.20;99.90
54680;DHT22;40578;53.178;5.846;2023-02-25T02:11:57;4.20;99.90
54680;DHT22;40578;53.178;5.846;2023-02-25T02:14:44;5.60;99.90
54680;DHT22;40578;53.178;5.846;2023-02-25T02:20:09;4.20;99.90
54680;DHT22;40578;53.178;5.846;2023-02-25T02:31:05;4.20;99.90
54680;DHT22;40578;53.178;5.846;2023-02-25T02:39:14;4.20;99.90
54680;DHT22;40578;53.178;5.846;2023-02-25T02:41:59;4.20;99.90
54680;DHT22;40578;53.178;5.846;2023-02-25T02:47:10;4.10;99.90
54680;DHT22;40578;53.178;5.846;2023-02-25T02:49:53;4.00;99.90
54680;DHT22;40578;53.178;5.846;2023-02-25T02:52:23;4.00;99.90
54680;DHT22;40578;53.178;5.846;2023-02-25T02:54:56;4.00;99.90
54680;DHT22;40578;53.178;5.846;2023-02-25T02:57:23;4.00;99.90
54680;DHT22;40578;53.178;5.846;2023-02-25T02:59:57;4.00;99.90
54680;DHT22;40578;53.178;5.846;2023-02-25T03:02:30;4.00;99.90
54680;DHT22;40578;53.178;5.846;2023-02-25T03:05:02;4.00;99.90
54680;DHT22;40578;53.178;5.846;2023-02-25T03:07:31;3.90;99.90
54680;DHT22;40578;53.178;5.846;2023-02-25T03:10:00;4.00;99.90
54680;DHT22;40578;53.178;5.846;2023-02-25T03:12:27;4.00;99.90
54680;DHT22;40578;53.178;5.846;2023-02-25T03:14:55;4.10;99.90
54680;DHT22;40578;53.178;5.846;2023-02-25T03:17:30;4.20;99.90
54680;DHT22;40578;53.178;5.846;2023-02-25T03:20:43;4.40;99.90
54680;DHT22;40578;53.178;5.846;2023-02-25T03:23:09;4.20;99.90
54680;DHT22;40578;53.178;5.846;2023-02-25T03:25:43;4.10;99.90
54680;DHT22;40578;53.178;5.846;2023-02-25T03:28:23;5.90;99.90
54680;DHT22;40578;53.178;5.846;2023-02-25T03:31:08;4.10;99.90
54680;DHT22;40578;53.178;5.846;2023-02-25T03:39:05;4.20;99.90
54680;DHT22;40578;53.178;5.846;2023-02-25T03:41:36;4.30;99.90
54680;DHT22;40578;53.178;5.846;2023-02-25T03:44:08;4.20;99.90
54680;DHT22;40578;53.178;5.846;2023-02-25T03:46:37;4.20;99.90
54680;DHT22;40578;53.178;5.846;2023-02-25T03:49:04;4.10;99.90
54680;DHT22;40578;53.178;5.846;2023-02-25T03:51:35;4.00;99.90
54680;DHT22;40578;53.178;5.846;2023-02-25T03:54:03;4.00;99.90
54680;DHT22;40578;53.178;5.846;2023-02-25T03:56:28;4.00;99.90
54680;DHT22;40578;53.178;5.846;2023-02-25T03:58:54;4.00;99.90
54680;DHT22;40578;53.178;5.846;2023-02-25T04:01:25;4.00;99.90
54680;DHT22;40578;53.178;5.846;2023-02-25T04:03:52;4.00;99.90
54680;DHT22;40578;53.178;5.846;2023-02-25T04:06:20;4.10;99.90
54680;DHT22;40578;53.178;5.846;2023-02-25T04:08:47;5.60;99.90
54680;DHT22;40578;53.178;5.846;2023-02-25T04:11:13;4.20;99.90
54680;DHT22;40578;53.178;5.846;2023-02-25T04:13:39;4.10;99.90
54680;DHT22;40578;53.178;5.846;2023-02-25T04:16:05;4.10;99.90
54680;DHT22;40578;53.178;5.846;2023-02-25T04:18:33;4.10;99.90
54680;DHT22;40578;53.178;5.846;2023-02-25T04:20:59;4.00;99.90
54680;DHT22;40578;53.178;5.846;2023-02-25T04:23:25;4.00;99.90
54680;DHT22;40578;53.178;5.846;2023-02-25T04:25:50;4.00;99.90
54680;DHT22;40578;53.178;5.846;2023-02-25T04:28:16;4.00;99.90
54680;DHT22;40578;53.178;5.846;2023-02-25T04:30:42;4.00;99.90
54680;DHT22;40578;53.178;5.846;2023-02-25T04:33:09;4.00;99.90
54680;DHT22;40578;53.178;5.846;2023-02-25T04:35:35;4.00;99.90
54680;DHT22;40578;53.178;5.846;2023-02-25T04:38:01;4.00;99.90
54680;DHT22;40578;53.178;5.846;2023-02-25T04:40:26;4.00;99.90
54680;DHT22;40578;53.178;5.846;2023-02-25T04:42:52;4.00;99.90
54680;DHT22;40578;53.178;5.846;2023-02-25T04:45:18;4.00;99.90
54680;DHT22;40578;53.178;5.846;2023-02-25T04:47:54;4.00;99.90
54680;DHT22;40578;53.178;5.846;2023-02-25T04:50:20;4.00;99.90
54680;DHT22;40578;53.178;5.846;2023-02-25T04:52:46;4.50;99.90
54680;DHT22;40578;53.178;5.846;2023-02-25T04:55:12;4.00;99.90
54680;DHT22;40578;53.178;5.846;2023-02-25T04:57:38;4.00;99.90
54680;DHT22;40578;53.178;5.846;2023-02-25T05:00:19;4.00;99.90
54680;DHT22;40578;53.178;5.846;2023-02-25T05:02:48;4.00;99.90
54680;DHT22;40578;53.178;5.846;2023-02-25T05:05:15;4.00;99.90
54680;DHT22;40578;53.178;5.846;2023-02-25T05:07:41;4.00;99.90
54680;DHT22;40578;53.178;5.846;2023-02-25T05:10:10;4.00;99.90
54680;DHT22;40578;53.178;5.846;2023-02-25T05:12:36;4.10;99.90
54680;DHT22;40578;53.178;5.846;2023-02-25T05:15:02;4.10;99.90
54680;DHT22;40578;53.178;5.846;2023-02-25T05:17:33;4.10;99.90
54680;DHT22;40578;53.178;5.846;2023-02-25T05:19:58;4.00;99.90
54680;DHT22;40578;53.178;5.846;2023-02-25T05:22:25;4.10;99.90
54680;DHT22;40578;53.178;5.846;2023-02-25T05:24:52;4.10;99.90
54680;DHT22;40578;53.178;5.846;2023-02-25T05:27:17;4.10;99.90
54680;DHT22;40578;53.178;5.846;2023-02-25T05:29:44;4.10;99.90
54680;DHT22;40578;53.178;5.846;2023-02-25T05:32:10;4.20;99.90
54680;DHT22;40578;53.178;5.846;2023-02-25T05:34:36;4.20;99.90
54680;DHT22;40578;53.178;5.846;2023-02-25T05:37:01;4.20;99.90
54680;DHT22;40578;53.178;5.846;2023-02-25T05:39:27;4.30;99.90
54680;DHT22;40578;53.178;5.846;2023-02-25T05:41:53;4.30;99.90
54680;DHT22;40578;53.178;5.846;2023-02-25T05:44:19;4.30;99.90
54680;DHT22;40578;53.178;5.846;2023-02-25T05:46:44;4.20;99.90
54680;DHT22;40578;53.178;5.846;2023-02-25T05:49:10;4.20;99.90
54680;DHT22;40578;53.178;5.846;2023-02-25T05:51:36;4.10;99.90
54680;DHT22;40578;53.178;5.846;2023-02-25T05:54:02;4.00;99.90
54680;DHT22;40578;53.178;5.846;2023-02-25T05:56:27;3.90;99.90
54680;DHT22;40578;53.178;5.846;2023-02-25T05:58:55;3.80;99.90
54680;DHT22;40578;53.178;5.846;2023-02-25T06:01:24;3.80;99.90
54680;DHT22;40578;53.178;5.846;2023-02-25T06:03:52;3.80;99.90
54680;DHT22;40578;53.178;5.846;2023-02-25T06:06:19;3.90;99.90
54680;DHT22;40578;53.178;5.846;2023-02-25T06:08:49;4.00;99.90
54680;DHT22;40578;53.178;5.846;2023-02-25T06:11:20;3.90;99.90
54680;DHT22;40578;53.178;5.846;2023-02-25T06:13:50;3.80;99.90
54680;DHT22;40578;53.178;5.846;2023-02-25T06:16:16;3.60;99.90
54680;DHT22;40578;53.178;5.846;2023-02-25T06:18:42;3.80;99.90
54680;DHT22;40578;53.178;5.846;2023-02-25T06:21:10;3.40;99.90
54680;DHT22;40578;53.178;5.846;2023-02-25T06:23:38;3.30;99.90
54680;DHT22;40578;53.178;5.846;2023-02-25T06:26:05;3.20;99.90
54680;DHT22;40578;53.178;5.846;2023-02-25T06:28:33;3.20;99.90
54680;DHT22;40578;53.178;5.846;2023-02-25T06:30:59;3.10;99.90
54680;DHT22;40578;53.178;5.846;2023-02-25T06:33:25;3.10;99.90
54680;DHT22;40578;53.178;5.846;2023-02-25T06:35:51;3.00;99.90
54680;DHT22;40578;53.178;5.846;2023-02-25T06:38:17;3.00;99.90
54680;DHT22;40578;53.178;5.846;2023-02-25T06:40:44;3.00;99.90
54680;DHT22;40578;53.178;5.846;2023-02-25T06:43:10;3.00;99.90
54680;DHT22;40578;53.178;5.846;2023-02-25T06:45:38;3.10;99.90
54680;DHT22;40578;53.178;5.846;2023-02-25T06:48:04;3.10;99.90
54680;DHT22;40578;53.178;5.846;2023-02-25T06:50:31;3.10;99.90
54680;DHT22;40578;53.178;5.846;2023-02-25T06:52:57;3.30;99.90
54680;DHT22;40578;53.178;5.846;2023-02-25T06:55:23;3.20;99.90
54680;DHT22;40578;53.178;5.846;2023-02-25T06:57:49;3.20;99.90
54680;DHT22;40578;53.178;5.846;2023-02-25T07:00:15;3.30;99.90
54680;DHT22;40578;53.178;5.846;2023-02-25T07:02:41;3.40;99.90
54680;DHT22;40578;53.178;5.846;2023-02-25T07:05:06;3.40;99.90
54680;DHT22;40578;53.178;5.846;2023-02-25T07:07:32;3.40;99.90
54680;DHT22;40578;53.178;5.846;2023-02-25T07:09:58;3.40;99.90
54680;DHT22;40578;53.178;5.846;2023-02-25T07:12:23;3.40;99.90
54680;DHT22;40578;53.178;5.846;2023-02-25T07:14:49;3.40;99.90
54680;DHT22;40578;53.178;5.846;2023-02-25T07:17:15;5.10;99.90
54680;DHT22;40578;53.178;5.846;2023-02-25T07:19:40;3.40;99.90
54680;DHT22;40578;53.178;5.846;2023-02-25T07:22:12;3.50;99.90
54680;DHT22;40578;53.178;5.846;2023-02-25T07:24:38;3.40;99.90
54680;DHT22;40578;53.178;5.846;2023-02-25T07:27:04;3.50;99.90
54680;DHT22;40578;53.178;5.846;2023-02-25T07:29:29;3.60;99.90
54680;DHT22;40578;53.178;5.846;2023-02-25T07:31:56;3.60;99.90
54680;DHT22;40578;53.178;5.846;2023-02-25T07:34:21;3.70;99.90
54680;DHT22;40578;53.178;5.846;2023-02-25T07:36:47;3.80;99.90
54680;DHT22;40578;53.178;5.846;2023-02-25T07:39:13;4.00;99.90
54680;DHT22;40578;53.178;5.846;2023-02-25T07:41:38;4.20;99.90
54680;DHT22;40578;53.178;5.846;2023-02-25T07:44:05;4.20;99.90
54680;DHT22;40578;53.178;5.846;2023-02-25T07:46:31;4.10;99.90
54680;DHT22;40578;53.178;5.846;2023-02-25T07:48:57;4.10;99.90
54680;DHT22;40578;53.178;5.846;2023-02-25T07:51:24;4.10;99.90
54680;DHT22;40578;53.178;5.846;2023-02-25T07:53:50;4.10;99.90
54680;DHT22;40578;53.178;5.846;2023-02-25T07:56:18;4.20;99.90
54680;DHT22;40578;53.178;5.846;2023-02-25T07:58:44;4.70;99.90
54680;DHT22;40578;53.178;5.846;2023-02-25T08:01:28;4.10;99.90
54680;DHT22;40578;53.178;5.846;2023-02-25T08:03:58;4.10;99.90
54680;DHT22;40578;53.178;5.846;2023-02-25T08:06:24;4.10;99.90
54680;DHT22;40578;53.178;5.846;2023-02-25T08:08:50;4.10;99.90
54680;DHT22;40578;53.178;5.846;2023-02-25T08:11:18;4.10;99.90
54680;DHT22;40578;53.178;5.846;2023-02-25T08:13:45;4.10;99.90
54680;DHT22;40578;53.178;5.846;2023-02-25T08:16:14;4.10;99.90
54680;DHT22;40578;53.178;5.846;2023-02-25T08:18:40;4.10;99.90
54680;DHT22;40578;53.178;5.846;2023-02-25T08:21:10;4.30;99.90
54680;DHT22;40578;53.178;5.846;2023-02-25T08:23:36;4.40;99.90
54680;DHT22;40578;53.178;5.846;2023-02-25T08:26:02;4.50;99.90
54680;DHT22;40578;53.178;5.846;2023-02-25T08:28:29;4.60;99.90
54680;DHT22;40578;53.178;5.846;2023-02-25T08:30:58;4.70;99.90
54680;DHT22;40578;53.178;5.846;2023-02-25T08:33:24;5.00;99.90
54680;DHT22;40578;53.178;5.846;2023-02-25T08:35:50;5.00;99.90
54680;DHT22;40578;53.178;5.846;2023-02-25T08:38:16;5.10;99.90
54680;DHT22;40578;53.178;5.846;2023-02-25T08:40:42;5.10;99.90
54680;DHT22;40578;53.178;5.846;2023-02-25T08:43:08;5.20;99.90
54680;DHT22;40578;53.178;5.846;2023-02-25T08:45:37;5.30;99.90
54680;DHT22;40578;53.178;5.846;2023-02-25T08:48:03;5.40;99.90
54680;DHT22;40578;53.178;5.846;2023-02-25T08:50:29;6.10;99.90
54680;DHT22;40578;53.178;5.846;2023-02-25T08:52:55;5.30;99.90
54680;DHT22;40578;53.178;5.846;2023-02-25T08:55:20;5.40;99.90
54680;DHT22;40578;53.178;5.846;2023-02-25T08:57:50;5.30;99.90
54680;DHT22;40578;53.178;5.846;2023-02-25T09:00:16;5.30;99.90
54680;DHT22;40578;53.178;5.846;2023-02-25T09:02:42;5.40;99.90
54680;DHT22;40578;53.178;5.846;2023-02-25T09:05:09;5.50;99.90
54680;DHT22;40578;53.178;5.846;2023-02-25T09:07:35;5.50;99.90
54680;DHT22;40578;53.178;5.846;2023-02-25T09:10:00;5.50;99.90
54680;DHT22;40578;53.178;5.846;2023-02-25T09:12:29;5.40;99.90
54680;DHT22;40578;53.178;5.846;2023-02-25T09:15:13;5.40;99.90
54680;DHT22;40578;53.178;5.846;2023-02-25T09:17:39;5.40;99.90
54680;DHT22;40578;53.178;5.846;2023-02-25T09:20:06;5.40;99.90
54680;DHT22;40578;53.178;5.846;2023-02-25T09:22:36;5.40;99.90
54680;DHT22;40578;53.178;5.846;2023-02-25T09:25:04;5.50;99.90
54680;DHT22;40578;53.178;5.846;2023-02-25T09:27:29;5.60;99.90
54680;DHT22;40578;53.178;5.846;2023-02-25T09:29:56;5.60;99.90
54680;DHT22;40578;53.178;5.846;2023-02-25T09:32:22;5.60;99.90
54680;DHT22;40578;53.178;5.846;2023-02-25T09:34:48;5.50;99.90
54680;DHT22;40578;53.178;5.846;2023-02-25T09:37:15;5.50;99.90
54680;DHT22;40578;53.178;5.846;2023-02-25T09:39:41;5.50;99.90
54680;DHT22;40578;53.178;5.846;2023-02-25T09:42:15;5.50;99.90
54680;DHT22;40578;53.178;5.846;2023-02-25T09:44:50;6.20;99.90
54680;DHT22;40578;53.178;5.846;2023-02-25T09:47:58;5.60;99.90
54680;DHT22;40578;53.178;5.846;2023-02-25T09:50:20;5.60;99.90
54680;DHT22;40578;53.178;5.846;2023-02-25T09:52:58;5.80;99.90
54680;DHT22;40578;53.178;5.846;2023-02-25T09:55:30;5.90;99.90
54680;DHT22;40578;53.178;5.846;2023-02-25T10:00:52;6.00;99.90
54680;DHT22;40578;53.178;5.846;2023-02-25T10:03:24;5.90;99.90
54680;DHT22;40578;53.178;5.846;2023-02-25T10:06:14;6.00;99.90
54680;DHT22;40578;53.178;5.846;2023-02-25T10:11:58;5.80;99.90
54680;DHT22;40578;53.178;5.846;2023-02-25T10:14:43;5.70;99.90
54680;DHT22;40578;53.178;5.846;2023-02-25T10:25:13;5.80;99.90
54680;DHT22;40578;53.178;5.846;2023-02-25T10:27:49;5.80;99.90
54680;DHT22;40578;53.178;5.846;2023-02-25T10:30:27;5.80;99.90
54680;DHT22;40578;53.178;5.846;2023-02-25T10:32:55;5.70;99.90
54680;DHT22;40578;53.178;5.846;2023-02-25T10:35:25;5.70;99.90
54680;DHT22;40578;53.178;5.846;2023-02-25T10:37:52;5.80;99.90
54680;DHT22;40578;53.178;5.846;2023-02-25T10:40:20;5.80;99.90
54680;DHT22;40578;53.178;5.846;2023-02-25T10:42:49;5.80;99.90
54680;DHT22;40578;53.178;5.846;2023-02-25T10:45:25;6.70;99.90
54680;DHT22;40578;53.178;5.846;2023-02-25T10:48:06;6.00;99.90
54680;DHT22;40578;53.178;5.846;2023-02-25T10:50:31;6.00;99.90
54680;DHT22;40578;53.178;5.846;2023-02-25T10:53:00;6.00;99.90
54680;DHT22;40578;53.178;5.846;2023-02-25T10:55:56;6.60;99.90
54680;DHT22;40578;53.178;5.846;2023-02-25T10:58:24;6.10;99.90
54680;DHT22;40578;53.178;5.846;2023-02-25T11:03:53;6.00;99.90
54680;DHT22;40578;53.178;5.846;2023-02-25T11:08:52;5.90;99.90
54680;DHT22;40578;53.178;5.846;2023-02-25T11:11:28;6.00;99.90
54680;DHT22;40578;53.178;5.846;2023-02-25T11:13:55;6.40;99.90
54680;DHT22;40578;53.178;5.846;2023-02-25T11:16:24;5.90;99.90
54680;DHT22;40578;53.178;5.846;2023-02-25T11:18:57;6.00;99.90
54680;DHT22;40578;53.178;5.846;2023-02-25T11:21:30;6.00;99.90
54680;DHT22;40578;53.178;5.846;2023-02-25T11:23:59;7.40;99.90
54680;DHT22;40578;53.178;5.846;2023-02-25T11:26:33;6.60;99.90
54680;DHT22;40578;53.178;5.846;2023-02-25T11:29:11;6.40;99.90
54680;DHT22;40578;53.178;5.846;2023-02-25T11:31:39;6.20;99.90
54680;DHT22;40578;53.178;5.846;2023-02-25T11:34:31;6.20;99.90
54680;DHT22;40578;53.178;5.846;2023-02-25T11:40:31;6.40;99.90
54680;DHT22;40578;53.178;5.846;2023-02-25T11:45:28;6.30;99.90
54680;DHT22;40578;53.178;5.846;2023-02-25T11:47:56;6.30;99.90
54680;DHT22;40578;53.178;5.846;2023-02-25T11:50:26;6.30;99.90
54680;DHT22;40578;53.178;5.846;2023-02-25T11:55:44;6.70;99.90
54680;DHT22;40578;53.178;5.846;2023-02-25T12:01:34;6.70;99.90
54680;DHT22;40578;53.178;5.846;2023-02-25T12:18:11;6.00;99.90
54680;DHT22;40578;53.178;5.846;2023-02-25T12:27:04;6.10;99.90
54680;DHT22;40578;53.178;5.846;2023-02-25T12:38:18;6.30;99.90
54680;DHT22;40578;53.178;5.846;2023-02-25T12:40:57;6.40;99.90
54680;DHT22;40578;53.178;5.846;2023-02-25T12:57:06;6.50;99.90
54680;DHT22;40578;53.178;5.846;2023-02-25T13:14:43;6.50;99.90
54680;DHT22;40578;53.178;5.846;2023-02-25T13:17:38;6.60;99.90
54680;DHT22;40578;53.178;5.846;2023-02-25T13:20:31;6.50;99.90
54680;DHT22;40578;53.178;5.846;2023-02-25T13:23:17;6.50;99.90
54680;DHT22;40578;53.178;5.846;2023-02-25T13:25:57;6.70;99.90
54680;DHT22;40578;53.178;5.846;2023-02-25T13:34:24;6.60;99.90
54680;DHT22;40578;53.178;5.846;2023-02-25T13:37:08;6.40;99.90
54680;DHT22;40578;53.178;5.846;2023-02-25T13:39:50;7.30;99.90
54680;DHT22;40578;53.178;5.846;2023-02-25T14:00:24;6.50;
54680;DHT22;40578;53.178;5.846;2023-02-25T14:11:27;6.40;99.90
54680;DHT22;40578;53.178;5.846;2023-02-25T14:22:34;6.40;99.90
54680;DHT22;40578;53.178;5.846;2023-02-25T14:30:48;6.30;99.90
54680;DHT22;40578;53.178;5.846;2023-02-25T14:34:08;6.30;99.90
54680;DHT22;40578;53.178;5.846;2023-02-25T14:45:04;6.40;99.90
54680;DHT22;40578;53.178;5.846;2023-02-25T14:47:45;6.30;99.90
54680;DHT22;40578;53.178;5.846;2023-02-25T15:02:02;6.30;99.90
54680;DHT22;40578;53.178;5.846;2023-02-25T15:04:52;6.40;99.90
54680;DHT22;40578;53.178;5.846;2023-02-25T15:07:52;6.30;99.90
54680;DHT22;40578;53.178;5.846;2023-02-25T15:13:28;6.30;99.90
54680;DHT22;40578;53.178;5.846;2023-02-25T15:19:05;6.40;99.90
54680;DHT22;40578;53.178;5.846;2023-02-25T15:24:08;6.30;99.90
54680;DHT22;40578;53.178;5.846;2023-02-25T15:26:40;6.40;99.90
54680;DHT22;40578;53.178;5.846;2023-02-25T15:34:54;6.30;99.90
54680;DHT22;40578;53.178;5.846;2023-02-25T15:37:36;6.30;99.90
54680;DHT22;40578;53.178;5.846;2023-02-25T15:42:46;6.30;99.90
54680;DHT22;40578;53.178;5.846;2023-02-25T15:55:46;6.20;99.90
54680;DHT22;40578;53.178;5.846;2023-02-25T16:06:21;5.90;99.90
54680;DHT22;40578;53.178;5.846;2023-02-25T16:14:05;5.70;99.90
54680;DHT22;40578;53.178;5.846;2023-02-25T16:16:32;5.60;99.90
54680;DHT22;40578;53.178;5.846;2023-02-25T16:19:00;5.50;99.90
54680;DHT22;40578;53.178;5.846;2023-02-25T16:21:41;5.40;99.90
54680;DHT22;40578;53.178;5.846;2023-02-25T16:24:10;5.40;99.90
54680;DHT22;40578;53.178;5.846;2023-02-25T16:26:52;5.40;99.90
54680;DHT22;40578;53.178;5.846;2023-02-25T16:35:20;5.40;99.90
54680;DHT22;40578;53.178;5.846;2023-02-25T16:40:42;5.40;99.90
54680;DHT22;40578;53.178;5.846;2023-02-25T16:43:12;5.00;99.90
54680;DHT22;40578;53.178;5.846;2023-02-25T16:45:51;4.60;99.90
54680;DHT22;40578;53.178;5.846;2023-02-25T16:48:23;4.30;99.90
54680;DHT22;40578;53.178;5.846;2023-02-25T16:50:52;4.10;99.90
54680;DHT22;40578;53.178;5.846;2023-02-25T16:53:20;5.60;99.90
54680;DHT22;40578;53.178;5.846;2023-02-25T16:55:47;4.00;99.90
54680;DHT22;40578;53.178;5.846;2023-02-25T17:00:54;4.00;99.90
54680;DHT22;40578;53.178;5.846;2023-02-25T17:03:22;4.10;99.90
54680;DHT22;40578;53.178;5.846;2023-02-25T17:06:00;4.10;99.90
54680;DHT22;40578;53.178;5.846;2023-02-25T17:08:26;5.30;99.90
54680;DHT22;40578;53.178;5.846;2023-02-25T17:10:53;4.10;99.90
54680;DHT22;40578;53.178;5.846;2023-02-25T17:13:33;4.00;99.90
54680;DHT22;40578;53.178;5.846;2023-02-25T17:16:01;4.00;99.90
54680;DHT22;40578;53.178;5.846;2023-02-25T17:18:49;4.00;99.90
54680;DHT22;40578;53.178;5.846;2023-02-25T17:21:27;4.10;99.90
54680;DHT22;40578;53.178;5.846;2023-02-25T17:23:57;4.10;99.90
54680;DHT22;40578;53.178;5.846;2023-02-25T17:26:24;4.10;99.90
54680;DHT22;40578;53.178;5.846;2023-02-25T17:28:52;4.10;99.90
54680;DHT22;40578;53.178;5.846;2023-02-25T17:31:21;4.20;99.90
54680;DHT22;40578;53.178;5.846;2023-02-25T17:36:23;4.20;99.90
54680;DHT22;40578;53.178;5.846;2023-02-25T17:38:58;4.20;99.90
54680;DHT22;40578;53.178;5.846;2023-02-25T17:41:24;4.20;99.90
54680;DHT22;40578;53.178;5.846;2023-02-25T17:43:51;4.20;99.90
54680;DHT22;40578;53.178;5.846;2023-02-25T17:46:27;4.20;99.90
54680;DHT22;40578;53.178;5.846;2023-02-25T17:48:58;4.70;99.90
54680;DHT22;40578;53.178;5.846;2023-02-25T17:51:33;4.10;99.90
54680;DHT22;40578;53.178;5.846;2023-02-25T17:54:07;4.10;99.90
54680;DHT22;40578;53.178;5.846;2023-02-25T17:56:33;4.00;99.90
54680;DHT22;40578;53.178;5.846;2023-02-25T17:59:05;4.00;99.90
54680;DHT22;40578;53.178;5.846;2023-02-25T18:01:54;4.00;99.90
54680;DHT22;40578;53.178;5.846;2023-02-25T18:06:52;3.90;99.90
54680;DHT22;40578;53.178;5.846;2023-02-25T18:12:01;4.10;99.90
54680;DHT22;40578;53.178;5.846;2023-02-25T18:14:36;3.70;99.90
54680;DHT22;40578;53.178;5.846;2023-02-25T18:17:17;3.70;99.90
54680;DHT22;40578;53.178;5.846;2023-02-25T18:19:47;3.60;99.90
54680;DHT22;40578;53.178;5.846;2023-02-25T18:22:33;3.60;99.90
54680;DHT22;40578;53.178;5.846;2023-02-25T18:25:02;3.60;99.90
54680;DHT22;40578;53.178;5.846;2023-02-25T18:27:33;3.60;99.90
54680;DHT22;40578;53.178;5.846;2023-02-25T18:32:36;3.60;99.90
54680;DHT22;40578;53.178;5.846;2023-02-25T18:35:04;3.60;99.90
54680;DHT22;40578;53.178;5.846;2023-02-25T18:37:31;3.60;99.90
54680;DHT22;40578;53.178;5.846;2023-02-25T18:39:58;3.50;99.90
54680;DHT22;40578;53.178;5.846;2023-02-25T18:42:23;3.50;99.90
54680;DHT22;40578;53.178;5.846;2023-02-25T18:44:49;3.50;99.90
54680;DHT22;40578;53.178;5.846;2023-02-25T18:47:15;3.50;99.90
54680;DHT22;40578;53.178;5.846;2023-02-25T18:49:42;3.40;99.90
54680;DHT22;40578;53.178;5.846;2023-02-25T18:52:22;3.30;99.90
54680;DHT22;40578;53.178;5.846;2023-02-25T18:54:50;3.30;99.90
54680;DHT22;40578;53.178;5.846;2023-02-25T18:57:22;3.20;99.90
54680;DHT22;40578;53.178;5.846;2023-02-25T18:59:49;3.20;99.90
54680;DHT22;40578;53.178;5.846;2023-02-25T19:04:55;3.10;99.90
54680;DHT22;40578;53.178;5.846;2023-02-25T19:07:23;3.10;99.90
54680;DHT22;40578;53.178;5.846;2023-02-25T19:09:49;3.00;99.90
54680;DHT22;40578;53.178;5.846;2023-02-25T19:12:16;3.00;99.90
54680;DHT22;40578;53.178;5.846;2023-02-25T19:14:43;3.00;99.90
54680;DHT22;40578;53.178;5.846;2023-02-25T19:17:14;3.00;99.90
54680;DHT22;40578;53.178;5.846;2023-02-25T19:19:41;3.00;99.90
54680;DHT22;40578;53.178;5.846;2023-02-25T19:22:12;3.10;99.90
54680;DHT22;40578;53.178;5.846;2023-02-25T19:24:39;3.40;99.90
54680;DHT22;40578;53.178;5.846;2023-02-25T19:27:05;3.10;99.90
54680;DHT22;40578;53.178;5.846;2023-02-25T19:29:30;3.20;99.90
54680;DHT22;40578;53.178;5.846;2023-02-25T19:31:56;3.20;99.90
54680;DHT22;40578;53.178;5.846;2023-02-25T19:34:21;3.20;99.90
54680;DHT22;40578;53.178;5.846;2023-02-25T19:36:49;3.20;99.90
54680;DHT22;40578;53.178;5.846;2023-02-25T19:39:15;3.20;99.90
54680;DHT22;40578;53.178;5.846;2023-02-25T19:41:41;3.20;99.90
54680;DHT22;40578;53.178;5.846;2023-02-25T19:44:07;3.30;99.90
54680;DHT22;40578;53.178;5.846;2023-02-25T19:46:33;3.30;99.90
54680;DHT22;40578;53.178;5.846;2023-02-25T19:48:59;3.30;99.90
54680;DHT22;40578;53.178;5.846;2023-02-25T19:51:24;3.60;99.90
54680;DHT22;40578;53.178;5.846;2023-02-25T19:53:50;3.40;99.90
54680;DHT22;40578;53.178;5.846;2023-02-25T19:56:15;3.40;99.90
54680;DHT22;40578;53.178;5.846;2023-02-25T19:58:41;3.40;99.90
54680;DHT22;40578;53.178;5.846;2023-02-25T20:01:07;3.40;99.90
54680;DHT22;40578;53.178;5.846;2023-02-25T20:03:34;3.30;99.90
54680;DHT22;40578;53.178;5.846;2023-02-25T20:06:08;3.40;99.90
54680;DHT22;40578;53.178;5.846;2023-02-25T20:08:35;3.40;99.90
54680;DHT22;40578;53.178;5.846;2023-02-25T20:11:01;3.30;99.90